createdAt,value
2022-08-18T00:02:03.567Z,79.70
2022-08-18T00:04:35.452Z,79.30
2022-08-18T00:07:05.415Z,78.60
2022-08-18T00:09:35.467Z,78.00
2022-08-18T00:12:06.323Z,77.50
2022-08-18T00:14:34.490Z,77.30
2022-08-18T00:17:03.799Z,77.30
2022-08-18T00:19:47.130Z,78.20
2022-08-18T00:22:19.497Z,77.10
2022-08-18T00:24:49.679Z,77.10
2022-08-18T00:27:23.318Z,78.60
2022-08-18T00:29:53.336Z,79.40
2022-08-18T00:32:24.911Z,79.50
2022-08-18T00:34:53.072Z,79.70
2022-08-18T00:37:23.298Z,80.60
2022-08-18T00:39:53.027Z,79.80
2022-08-18T00:42:28.823Z,79.60
2022-08-18T00:45:07.303Z,79.30
2022-08-18T00:47:42.544Z,79.10
2022-08-18T00:50:14.821Z,80.20
2022-08-18T00:52:49.791Z,79.50
2022-08-18T00:55:19.439Z,78.80
2022-08-18T00:57:49.552Z,78.00
2022-08-18T01:00:18.103Z,77.20
2022-08-18T01:02:51.632Z,76.90
2022-08-18T01:05:25.309Z,76.40
2022-08-18T01:07:53.691Z,76.20
2022-08-18T01:10:23.948Z,76.30
2022-08-18T01:12:56.419Z,76.20
2022-08-18T01:15:28.790Z,76.10
2022-08-18T01:18:18.963Z,75.90
2022-08-18T01:21:17.860Z,76.10
2022-08-18T01:23:49.032Z,76.60
2022-08-18T01:26:17.941Z,76.70
2022-08-18T01:28:47.400Z,76.70
2022-08-18T01:31:34.248Z,77.70
2022-08-18T01:34:02.244Z,77.00
2022-08-18T01:36:30.389Z,77.10
2022-08-18T01:38:59.715Z,76.80
2022-08-18T01:41:30.799Z,77.00
2022-08-18T01:44:01.267Z,77.10
2022-08-18T01:46:30.526Z,77.00
2022-08-18T01:49:01.026Z,77.10
2022-08-18T01:51:36.317Z,76.90
2022-08-18T01:54:11.315Z,76.50
2022-08-18T01:56:40.714Z,76.30
2022-08-18T01:59:14.541Z,76.30
2022-08-18T02:01:50.340Z,76.40
2022-08-18T02:04:41.331Z,76.60
2022-08-18T02:07:12.021Z,77.00
2022-08-18T02:09:43.267Z,79.40
2022-08-18T02:12:11.975Z,80.10
2022-08-18T02:14:40.398Z,78.80
2022-08-18T02:17:10.954Z,78.90
2022-08-18T02:19:40.819Z,79.70
2022-08-18T02:22:10.135Z,79.70
2022-08-18T02:24:38.633Z,79.80
2022-08-18T02:27:09.440Z,79.80
2022-08-18T02:29:38.229Z,80.00
2022-08-18T02:32:07.089Z,80.20
2022-08-18T02:34:35.171Z,80.00
2022-08-18T02:37:04.420Z,80.00
2022-08-18T02:39:34.485Z,80.80
2022-08-18T02:42:02.472Z,82.30
2022-08-18T02:44:32.209Z,81.90
2022-08-18T02:47:00.242Z,81.30
2022-08-18T02:49:28.485Z,82.00
2022-08-18T02:51:56.423Z,82.10
2022-08-18T02:54:25.423Z,83.50
2022-08-18T02:56:54.268Z,84.20
2022-08-18T02:59:25.252Z,87.80
2022-08-18T03:01:56.776Z,87.20
2022-08-18T03:04:29.512Z,90.10
2022-08-18T03:07:00.489Z,90.00
2022-08-18T03:09:29.221Z,87.20
2022-08-18T03:11:57.652Z,86.30
2022-08-18T03:14:26.386Z,86.50
2022-08-18T03:16:56.028Z,86.60
2022-08-18T03:19:25.858Z,85.80
2022-08-18T03:21:54.954Z,85.30
2022-08-18T03:24:25.430Z,84.80
2022-08-18T03:26:56.758Z,86.40
2022-08-18T03:29:30.942Z,86.60
2022-08-18T03:32:02.065Z,86.10
2022-08-18T03:34:30.594Z,85.50
2022-08-18T03:36:58.787Z,85.00
2022-08-18T03:39:28.604Z,84.80
2022-08-18T03:42:01.251Z,84.50
2022-08-18T03:44:31.949Z,84.50
2022-08-18T03:47:02.997Z,84.50
2022-08-18T03:49:31.633Z,84.90
2022-08-18T03:52:00.962Z,85.80
2022-08-18T03:54:31.918Z,86.50
2022-08-18T03:57:00.242Z,87.40
2022-08-18T03:59:31.620Z,89.00
2022-08-18T04:02:03.561Z,88.60
2022-08-18T04:04:31.568Z,88.90
2022-08-18T04:07:04.697Z,90.20
2022-08-18T04:09:35.070Z,87.30
2022-08-18T04:12:13.391Z,86.60
2022-08-18T04:14:48.069Z,88.70
2022-08-18T04:17:20.283Z,87.70
2022-08-18T04:19:48.474Z,87.60
2022-08-18T04:22:17.559Z,87.50
2022-08-18T04:24:48.098Z,88.00
2022-08-18T04:27:18.377Z,87.30
2022-08-18T04:29:46.319Z,86.20
2022-08-18T04:32:14.558Z,85.70
2022-08-18T04:34:44.381Z,87.50
2022-08-18T04:37:13.410Z,86.80
2022-08-18T04:39:41.416Z,87.40
2022-08-18T04:42:09.520Z,87.60
2022-08-18T04:44:38.840Z,85.60
2022-08-18T04:47:07.852Z,85.80
2022-08-18T04:49:36.464Z,86.80
2022-08-18T04:52:39.784Z,85.80
2022-08-18T04:55:10.749Z,85.80
2022-08-18T04:57:39.055Z,87.50
2022-08-18T05:00:09.878Z,86.30
2022-08-18T05:02:37.872Z,89.90
2022-08-18T05:05:06.998Z,86.70
2022-08-18T05:07:36.294Z,86.30
2022-08-18T05:10:04.846Z,86.40
2022-08-18T05:12:32.763Z,88.20
2022-08-18T05:15:00.913Z,87.00
2022-08-18T05:17:31.097Z,89.00
2022-08-18T05:20:01.780Z,89.30
2022-08-18T05:22:30.857Z,90.80
2022-08-18T05:25:01.110Z,88.00
2022-08-18T05:27:33.923Z,87.30
2022-08-18T05:30:02.350Z,86.90
2022-08-18T05:32:47.347Z,86.50
2022-08-18T05:35:22.528Z,86.20
2022-08-18T05:38:04.890Z,86.60
2022-08-18T05:40:35.853Z,86.10
2022-08-18T05:43:06.598Z,86.70
2022-08-18T05:45:35.839Z,86.40
2022-08-18T05:48:04.157Z,85.90
2022-08-18T05:50:36.346Z,85.80
2022-08-18T05:53:12.530Z,86.40
2022-08-18T05:56:05.154Z,91.00
2022-08-18T05:58:36.591Z,90.80
2022-08-18T06:01:11.507Z,90.80
2022-08-18T06:03:46.795Z,91.40
2022-08-18T06:06:19.687Z,90.80
2022-08-18T06:08:53.749Z,90.90
2022-08-18T06:11:23.827Z,91.00
2022-08-18T06:13:57.723Z,91.00
2022-08-18T06:16:40.939Z,90.90
2022-08-18T06:19:25.491Z,90.80
2022-08-18T06:22:03.700Z,90.80
2022-08-18T06:24:38.882Z,91.00
2022-08-18T06:27:16.100Z,90.70
2022-08-18T06:30:05.229Z,90.40
2022-08-18T06:32:52.729Z,90.40
2022-08-18T06:35:30.348Z,90.30
2022-08-18T06:38:24.434Z,90.10
2022-08-18T06:41:03.890Z,90.30
2022-08-18T06:43:34.227Z,90.30
2022-08-18T06:46:04.165Z,90.10
2022-08-18T06:48:41.486Z,90.70
2022-08-18T06:51:10.124Z,90.40
2022-08-18T06:53:59.635Z,90.10
2022-08-18T06:56:34.883Z,89.70
2022-08-18T06:59:20.166Z,89.30
2022-08-18T07:01:51.837Z,89.30
2022-08-18T07:04:40.109Z,88.90
2022-08-18T07:07:17.351Z,89.40
2022-08-18T07:09:45.895Z,89.40
2022-08-18T07:12:21.892Z,88.80
2022-08-18T07:14:54.266Z,88.80
2022-08-18T07:17:43.689Z,89.10
2022-08-18T07:20:21.549Z,89.50
2022-08-18T07:22:59.646Z,88.50
2022-08-18T07:25:32.575Z,88.60
2022-08-18T07:28:02.593Z,90.80
2022-08-18T07:30:37.029Z,90.80
2022-08-18T07:33:15.289Z,90.70
2022-08-18T07:35:47.591Z,90.60
2022-08-18T07:38:41.604Z,90.40
2022-08-18T07:41:15.527Z,90.50
2022-08-18T07:44:04.262Z,90.40
2022-08-18T07:46:39.929Z,91.30
2022-08-18T07:49:07.899Z,90.50
2022-08-18T07:51:47.901Z,90.50
2022-08-18T07:54:50.733Z,90.40
2022-08-18T07:57:27.921Z,90.40
2022-08-18T08:00:04.757Z,90.90
2022-08-18T08:02:54.873Z,90.40
2022-08-18T08:05:39.971Z,90.20
2022-08-18T08:08:25.057Z,90.50
2022-08-18T08:11:04.956Z,90.20
2022-08-18T08:13:55.185Z,90.00
2022-08-18T08:16:37.105Z,90.20
2022-08-18T08:19:16.368Z,89.80
2022-08-18T08:21:53.397Z,90.10
2022-08-18T08:24:32.223Z,89.50
2022-08-18T08:27:06.562Z,90.80
2022-08-18T08:29:41.045Z,92.00
2022-08-18T08:32:13.279Z,91.00
2022-08-18T08:34:46.679Z,92.10
2022-08-18T08:37:21.100Z,91.70
2022-08-18T08:39:55.189Z,91.00
2022-08-18T08:42:37.484Z,91.20
2022-08-18T08:45:11.605Z,91.80
2022-08-18T08:47:46.939Z,90.60
2022-08-18T08:50:20.744Z,90.20
2022-08-18T08:52:57.157Z,90.50
2022-08-18T08:55:28.196Z,91.00
2022-08-18T08:58:02.947Z,91.30
2022-08-18T09:00:32.116Z,90.30
2022-08-18T09:03:15.268Z,90.60
2022-08-18T09:05:56.724Z,89.40
2022-08-18T09:08:43.585Z,89.40
2022-08-18T09:11:28.281Z,88.90
2022-08-18T09:14:25.470Z,90.10
2022-08-18T09:17:10.045Z,91.40
2022-08-18T09:19:53.306Z,90.90
2022-08-18T09:22:32.201Z,90.20
2022-08-18T09:25:00.928Z,89.10
2022-08-18T09:28:00.095Z,88.90
2022-08-18T09:30:45.019Z,91.00
2022-08-18T09:33:25.557Z,90.00
2022-08-18T09:36:10.629Z,90.90
2022-08-18T09:39:08.129Z,90.70
2022-08-18T09:41:46.037Z,92.60
2022-08-18T09:45:04.697Z,90.30
2022-08-18T09:48:01.278Z,91.00
2022-08-18T09:50:57.883Z,89.70
2022-08-18T09:53:53.917Z,90.50
2022-08-18T09:56:55.585Z,90.50
2022-08-18T10:00:01.333Z,90.50
2022-08-18T10:03:12.627Z,90.80
2022-08-18T10:05:55.762Z,91.60
2022-08-18T10:08:50.947Z,89.90
2022-08-18T10:11:27.499Z,91.40
2022-08-18T10:14:09.709Z,90.00
2022-08-18T10:17:15.889Z,89.10
2022-08-18T10:19:52.041Z,91.10
2022-08-18T10:22:39.533Z,90.50
2022-08-18T10:25:22.943Z,89.70
2022-08-18T10:27:56.462Z,89.50
2022-08-18T10:31:06.155Z,90.90
2022-08-18T10:34:15.946Z,90.10
2022-08-18T10:36:53.399Z,88.60
2022-08-18T10:39:23.654Z,88.20
2022-08-18T10:42:03.955Z,89.60
2022-08-18T10:44:35.588Z,87.90
2022-08-18T10:47:05.038Z,87.50
2022-08-18T10:49:46.902Z,89.80
2022-08-18T10:52:46.213Z,87.90
2022-08-18T10:55:48.529Z,90.20
2022-08-18T10:58:45.205Z,87.70
2022-08-18T11:01:24.464Z,88.00
2022-08-18T11:04:13.884Z,89.10
2022-08-18T11:06:48.373Z,88.50
2022-08-18T11:09:25.898Z,90.80
2022-08-18T11:11:59.145Z,90.90
2022-08-18T11:15:02.029Z,90.90
2022-08-18T11:18:01.899Z,90.60
2022-08-18T11:20:32.752Z,90.20
2022-08-18T11:23:03.768Z,90.10
2022-08-18T11:25:33.668Z,89.50
2022-08-18T11:28:03.313Z,88.10
2022-08-18T11:30:37.449Z,86.90
2022-08-18T11:33:08.320Z,86.80
2022-08-18T11:35:48.204Z,87.20
2022-08-18T11:38:20.722Z,86.50
2022-08-18T11:41:09.845Z,86.50
2022-08-18T11:43:43.199Z,85.00
2022-08-18T11:49:26.070Z,87.00
2022-08-18T11:51:57.444Z,86.10
2022-08-18T11:54:38.918Z,84.40
2022-08-18T11:57:42.799Z,85.10
2022-08-18T12:00:44.898Z,86.40
2022-08-18T12:03:21.830Z,85.80
2022-08-18T12:05:54.042Z,84.90
2022-08-18T12:08:56.607Z,84.60
2022-08-18T12:11:26.430Z,86.40
2022-08-18T12:14:31.898Z,84.10
2022-08-18T12:16:54.382Z,83.30
2022-08-18T12:19:25.245Z,85.30
2022-08-18T12:21:57.230Z,83.20
2022-08-18T12:24:29.370Z,83.10
2022-08-18T12:30:07.974Z,84.10
2022-08-18T12:32:49.300Z,82.50
2022-08-18T12:35:22.112Z,84.20
2022-08-18T12:38:00.111Z,82.70
2022-08-18T12:40:32.360Z,83.30
2022-08-18T12:43:00.979Z,83.10
2022-08-18T12:45:31.071Z,82.90
2022-08-18T12:48:04.133Z,82.30
2022-08-18T12:50:42.677Z,83.80
2022-08-18T12:53:29.609Z,84.40
2022-08-18T12:58:56.442Z,82.50
2022-08-18T13:01:26.589Z,86.80
2022-08-18T13:04:10.876Z,85.20
2022-08-18T13:06:59.840Z,85.30
2022-08-18T13:09:35.044Z,85.10
2022-08-18T13:12:19.599Z,84.70
2022-08-18T13:14:48.061Z,83.80
2022-08-18T13:17:30.701Z,83.50
2022-08-18T13:20:07.959Z,84.90
2022-08-18T13:22:37.419Z,83.00
2022-08-18T13:25:07.141Z,82.80
2022-08-18T13:27:45.621Z,82.00
2022-08-18T13:30:31.555Z,82.60
2022-08-18T13:33:05.455Z,83.30
2022-08-18T13:35:54.086Z,83.20
2022-08-18T13:38:27.135Z,81.70
2022-08-18T13:40:58.846Z,81.30
2022-08-18T13:43:32.177Z,80.90
2022-08-18T13:46:01.367Z,81.70
2022-08-18T13:48:29.778Z,80.60
2022-08-18T13:51:01.024Z,80.60
2022-08-18T13:53:31.984Z,80.60
2022-08-18T13:56:00.430Z,80.70
2022-08-18T13:58:29.501Z,82.10
2022-08-18T14:01:22.488Z,81.10
2022-08-18T14:03:48.096Z,81.50
2022-08-18T14:06:21.895Z,79.40
2022-08-18T14:08:52.685Z,81.00
2022-08-18T14:11:23.650Z,81.60
2022-08-18T14:13:54.099Z,81.30
2022-08-18T14:16:23.159Z,81.40
2022-08-18T14:19:12.952Z,81.60
2022-08-18T14:22:02.572Z,83.70
2022-08-18T14:24:50.132Z,82.00
2022-08-18T14:27:18.734Z,83.20
2022-08-18T14:29:49.753Z,83.40
2022-08-18T14:32:21.955Z,85.00
2022-08-18T14:35:00.229Z,84.70
2022-08-18T14:37:30.492Z,84.20
2022-08-18T14:40:04.385Z,82.90
2022-08-18T14:42:41.102Z,82.60
2022-08-18T14:45:17.709Z,82.60
2022-08-18T14:47:59.332Z,81.90
2022-08-18T14:50:27.448Z,81.30
2022-08-18T14:52:55.394Z,80.20
2022-08-18T14:55:24.950Z,80.80
2022-08-18T14:57:54.924Z,79.80
2022-08-18T15:00:28.177Z,79.30
2022-08-18T15:02:57.404Z,80.00
2022-08-18T15:05:31.809Z,81.50
2022-08-18T15:08:03.660Z,82.30
2022-08-18T15:10:34.003Z,80.80
2022-08-18T15:13:02.087Z,80.00
2022-08-18T15:15:42.211Z,79.80
2022-08-18T15:18:22.386Z,80.70
2022-08-18T15:21:10.511Z,81.20
2022-08-18T15:24:19.075Z,78.80
2022-08-18T15:26:51.428Z,79.90
2022-08-18T15:29:27.711Z,80.10
2022-08-18T15:31:59.761Z,81.20
2022-08-18T15:34:30.757Z,78.00
2022-08-18T15:37:07.710Z,78.70
2022-08-18T15:39:38.033Z,77.60
2022-08-18T15:42:13.676Z,78.30
2022-08-18T15:44:44.731Z,78.10
2022-08-18T15:47:12.808Z,80.00
2022-08-18T15:49:48.795Z,80.80
2022-08-18T15:52:19.909Z,81.30
2022-08-18T15:54:50.283Z,81.60
2022-08-18T15:57:39.083Z,79.40
2022-08-18T16:00:12.102Z,80.30
2022-08-18T16:02:44.586Z,79.00
2022-08-18T16:05:16.898Z,80.40
2022-08-18T16:07:45.936Z,79.40
2022-08-18T16:10:14.648Z,78.10
2022-08-18T16:12:45.912Z,76.20
2022-08-18T16:15:15.454Z,76.70
2022-08-18T16:17:48.541Z,79.10
2022-08-18T16:20:17.711Z,78.10
2022-08-18T16:22:45.807Z,77.50
2022-08-18T16:25:14.364Z,77.40
2022-08-18T16:27:44.611Z,77.10
2022-08-18T16:30:15.496Z,76.90
2022-08-18T16:32:43.522Z,76.80
2022-08-18T16:35:11.507Z,76.80
2022-08-18T16:37:39.652Z,76.30
2022-08-18T16:40:09.359Z,76.70
2022-08-18T16:42:37.410Z,77.00
2022-08-18T16:45:08.400Z,77.00
2022-08-18T16:47:38.857Z,77.30
2022-08-18T16:50:09.056Z,78.90
2022-08-18T16:52:37.287Z,78.50
2022-08-18T16:55:06.818Z,78.50
2022-08-18T16:57:54.984Z,76.20
2022-08-18T17:00:43.383Z,77.40
2022-08-18T17:03:29.687Z,78.60
2022-08-18T17:06:02.197Z,77.50
2022-08-18T17:08:33.470Z,81.30
2022-08-18T17:11:01.972Z,80.60
2022-08-18T17:13:30.255Z,81.60
2022-08-18T17:16:01.315Z,80.80
2022-08-18T17:18:29.656Z,80.70
2022-08-18T17:20:57.971Z,80.00
2022-08-18T17:23:27.548Z,79.50
2022-08-18T17:25:56.428Z,79.50
2022-08-18T17:28:28.356Z,79.40
2022-08-18T17:30:56.288Z,80.00
2022-08-18T17:33:29.090Z,79.10
2022-08-18T17:36:00.911Z,79.00
2022-08-18T17:38:34.142Z,78.70
2022-08-18T17:41:04.273Z,78.70
2022-08-18T17:43:33.942Z,78.60
2022-08-18T17:46:06.271Z,78.50
2022-08-18T17:48:40.863Z,77.40
2022-08-18T17:51:31.089Z,78.20
2022-08-18T17:54:01.009Z,78.00
2022-08-18T17:56:36.229Z,76.90
2022-08-18T17:59:46.375Z,77.90
2022-08-18T18:02:19.041Z,76.20
2022-08-18T18:05:00.803Z,76.20
2022-08-18T18:07:32.290Z,78.70
2022-08-18T18:10:04.385Z,78.70
2022-08-18T18:12:35.681Z,78.60
2022-08-18T18:15:07.879Z,78.40
2022-08-18T18:17:38.999Z,78.20
2022-08-18T18:20:19.138Z,78.10
2022-08-18T18:22:47.282Z,77.90
2022-08-18T18:25:34.820Z,77.70
2022-08-18T18:28:03.313Z,77.40
2022-08-18T18:30:32.647Z,77.30
2022-08-18T18:33:03.010Z,77.20
2022-08-18T18:35:54.439Z,77.00
2022-08-18T18:38:27.962Z,77.00
2022-08-18T18:40:58.834Z,77.00
2022-08-18T18:43:29.757Z,77.10
2022-08-18T18:46:09.857Z,77.40
2022-08-18T18:48:52.512Z,75.10
2022-08-18T18:51:33.476Z,77.40
2022-08-18T18:54:12.377Z,77.60
2022-08-18T18:56:46.170Z,77.50
2022-08-18T18:59:23.372Z,77.50
2022-08-18T19:02:01.410Z,77.50
2022-08-18T19:04:38.492Z,77.40
2022-08-18T19:07:21.274Z,77.40
2022-08-18T19:09:56.933Z,77.50
2022-08-18T19:12:29.597Z,77.50
2022-08-18T19:15:03.670Z,77.50
2022-08-18T19:17:39.999Z,77.50
2022-08-18T19:20:13.521Z,77.50
2022-08-18T19:22:47.502Z,77.50
2022-08-18T19:25:20.454Z,77.60
2022-08-18T19:27:53.377Z,77.40
2022-08-18T19:30:22.839Z,77.80
2022-08-18T19:32:53.801Z,77.00
2022-08-18T19:35:35.142Z,77.70
2022-08-18T19:38:15.161Z,76.90
2022-08-18T19:40:48.510Z,77.00
2022-08-18T19:43:26.470Z,77.70
2022-08-18T19:46:03.302Z,79.10
2022-08-18T19:48:39.216Z,79.00
2022-08-18T19:51:14.451Z,79.40
2022-08-18T19:53:57.779Z,79.30
2022-08-18T19:56:42.189Z,79.00
2022-08-18T19:59:34.113Z,79.40
2022-08-18T20:02:19.233Z,78.50
2022-08-18T20:04:59.290Z,78.60
2022-08-18T20:07:55.552Z,80.60
2022-08-18T20:10:50.555Z,80.50
2022-08-18T20:13:32.674Z,79.60
2022-08-18T20:16:24.835Z,80.10
2022-08-18T20:18:58.332Z,79.90
2022-08-18T20:21:45.486Z,80.10
2022-08-18T20:24:39.666Z,80.90
2022-08-18T20:27:40.067Z,79.90
2022-08-18T20:30:33.130Z,81.20
2022-08-18T20:33:32.083Z,81.80
2022-08-18T20:36:17.928Z,82.20
2022-08-18T20:38:47.964Z,81.60
2022-08-18T20:41:52.475Z,82.40
2022-08-18T20:44:48.841Z,82.60
2022-08-18T20:47:44.562Z,82.50
2022-08-18T20:50:40.295Z,82.50
2022-08-18T20:53:22.366Z,82.20
2022-08-18T20:55:58.089Z,81.20
2022-08-18T20:58:35.130Z,81.20
2022-08-18T21:01:06.339Z,81.30
2022-08-18T21:03:40.458Z,82.30
2022-08-18T21:06:09.375Z,83.90
2022-08-18T21:08:39.852Z,83.00
2022-08-18T21:11:20.524Z,82.50
2022-08-18T21:14:03.962Z,83.40
2022-08-18T21:16:39.255Z,81.80
2022-08-18T21:19:13.718Z,81.90
2022-08-18T21:21:46.500Z,82.40
2022-08-18T21:24:26.947Z,82.10
2022-08-18T21:26:58.506Z,83.20
2022-08-18T21:29:44.211Z,82.80
2022-08-18T21:32:20.247Z,82.60
2022-08-18T21:34:48.510Z,82.70
2022-08-18T21:37:18.327Z,83.10
2022-08-18T21:39:54.902Z,84.00
2022-08-18T21:42:27.617Z,84.20
2022-08-18T21:45:00.615Z,84.10
2022-08-18T21:47:32.852Z,84.20
2022-08-18T21:50:09.240Z,83.80
2022-08-18T21:52:39.395Z,83.90
2022-08-18T21:55:13.536Z,83.30
2022-08-18T21:58:00.794Z,83.70
2022-08-18T22:00:31.425Z,84.10
2022-08-18T22:03:21.461Z,84.40
2022-08-18T22:06:00.769Z,85.00
2022-08-18T22:08:31.022Z,84.20
2022-08-18T22:11:51.993Z,84.30
2022-08-18T22:14:36.266Z,84.20
2022-08-18T22:17:27.026Z,84.10
2022-08-18T22:19:56.771Z,84.30
2022-08-18T22:22:42.083Z,83.20
2022-08-18T22:25:13.004Z,83.90
2022-08-18T22:27:41.139Z,84.10
2022-08-18T22:30:09.730Z,84.20
2022-08-18T22:32:39.128Z,84.40
2022-08-18T22:35:09.475Z,84.30
2022-08-18T22:37:48.672Z,84.00
2022-08-18T22:40:21.901Z,83.80
2022-08-18T22:42:50.315Z,83.70
2022-08-18T22:45:18.840Z,83.20
2022-08-18T22:47:46.845Z,84.10
2022-08-18T22:50:16.547Z,84.40
2022-08-18T22:52:48.371Z,84.60
2022-08-18T22:55:21.689Z,84.70
2022-08-18T22:57:55.830Z,84.10
2022-08-18T23:00:25.520Z,83.50
2022-08-18T23:02:54.021Z,84.60
2022-08-18T23:05:23.646Z,85.40
2022-08-18T23:07:51.626Z,85.80
2022-08-18T23:10:19.757Z,85.90
2022-08-18T23:12:49.771Z,86.10
2022-08-18T23:15:19.122Z,85.80
2022-08-18T23:17:47.090Z,85.50
2022-08-18T23:20:18.347Z,85.50
2022-08-18T23:22:48.804Z,84.90
2022-08-18T23:25:17.174Z,84.90
2022-08-18T23:27:45.133Z,85.10
2022-08-18T23:30:13.773Z,84.80
2022-08-18T23:32:43.587Z,84.30
2022-08-18T23:35:11.681Z,84.80
2022-08-18T23:37:40.221Z,84.70
2022-08-18T23:40:13.156Z,84.80
2022-08-18T23:42:41.132Z,84.40
2022-08-18T23:45:10.377Z,85.50
2022-08-18T23:47:38.378Z,85.90
2022-08-18T23:50:07.643Z,85.80
2022-08-18T23:52:35.575Z,86.10
2022-08-18T23:55:05.502Z,86.00
2022-08-18T23:57:36.084Z,85.80
